Time;durP1;ratioP1;P1;durP2;ratioP2;P2;SDS_P1;SDS_P2;PMS_P1;PMS_P2;Temp;Humidity;BMP_temperature;BMP_pressure;BME280_temperature;BME280_humidity;BME280_pressure;Samples;Min_cycle;Max_cycle;Signal;HPM_P1;HPM_P2
2021/11/24 00:00:44;;;;;;;12.43;6.78;;;-0.30;99.90;;;;;;5002656;28;20038;-68
2021/11/24 00:03:10;;;;;;;9.50;6.72;;;-0.30;99.90;;;;;;5019577;28;20025;-68
2021/11/24 00:05:36;;;;;;;11.77;6.75;;;-0.30;99.90;;;;;;5001734;28;20037;-68
2021/11/24 00:08:02;;;;;;;18.25;7.97;;;-0.30;99.90;;;;;;5002524;28;20533;-68
2021/11/24 00:10:33;;;;;;;12.93;6.97;;;-0.30;99.90;;;;;;5025929;28;20447;-68
2021/11/24 00:12:59;;;;;;;8.65;5.72;;;-0.30;99.90;;;;;;5001741;28;20100;-68
2021/11/24 00:15:25;;;;;;;10.02;6.15;;;-0.30;99.90;;;;;;5024776;28;20482;-68
2021/11/24 00:17:51;;;;;;;8.60;6.85;;;-0.30;99.90;;;;;;5020997;28;20033;-68
2021/11/24 00:20:16;;;;;;;12.32;7.35;;;-0.30;99.90;;;;;;5015355;28;20105;-68
2021/11/24 00:22:42;;;;;;;9.43;5.97;;;-0.30;99.90;;;;;;5018226;28;20030;-68
2021/11/24 00:25:08;;;;;;;9.98;6.25;;;-0.40;99.90;;;;;;5020228;28;20066;-67
2021/11/24 00:27:34;;;;;;;8.07;6.00;;;-0.40;99.90;;;;;;5014470;28;20029;-68
2021/11/24 00:29:59;;;;;;;10.63;6.85;;;-0.50;99.90;;;;;;5021531;28;20029;-68
2021/11/24 00:32:25;;;;;;;11.27;6.97;;;-0.60;99.90;;;;;;5021093;28;20033;-68
2021/11/24 00:34:51;;;;;;;7.78;5.53;;;-0.60;99.90;;;;;;5017371;28;20040;-67
2021/11/24 00:37:17;;;;;;;8.27;6.15;;;-0.60;99.90;;;;;;5006313;28;20087;-71
2021/11/24 00:39:42;;;;;;;10.32;6.93;;;-0.60;99.90;;;;;;5018623;28;20025;-68
2021/11/24 00:42:08;;;;;;;12.10;6.82;;;-0.60;99.90;;;;;;5021703;28;22205;-68
2021/11/24 00:44:34;;;;;;;9.07;6.30;;;-0.70;99.90;;;;;;5014728;28;20033;-68
2021/11/24 00:46:59;;;;;;;11.60;7.32;;;-0.80;99.90;;;;;;5019903;28;20091;-67
2021/11/24 00:49:25;;;;;;;12.82;5.85;;;-0.90;99.90;;;;;;5003563;28;20034;-67
2021/11/24 00:51:51;;;;;;;9.02;7.25;;;-1.00;99.90;;;;;;5019495;28;20034;-68
2021/11/24 00:54:16;;;;;;;9.80;5.65;;;-0.90;99.90;;;;;;5019232;28;20440;-68
2021/11/24 00:56:42;;;;;;;8.27;6.38;;;-0.90;99.90;;;;;;5019458;28;20030;-67
2021/11/24 00:59:08;;;;;;;13.70;7.65;;;-0.90;99.90;;;;;;5018645;28;20513;-67
2021/11/24 01:01:34;;;;;;;11.60;6.53;;;-0.90;99.90;;;;;;5017569;28;20034;-67
2021/11/24 01:04:00;;;;;;;10.90;6.80;;;-0.90;99.90;;;;;;5017970;28;20470;-68
2021/11/24 01:06:26;;;;;;;9.57;6.82;;;-1.00;99.90;;;;;;5015149;28;20119;-67
2021/11/24 01:08:52;;;;;;;9.40;6.78;;;-1.00;99.90;;;;;;5016555;28;20037;-68
2021/11/24 01:11:18;;;;;;;8.68;6.40;;;-1.10;99.90;;;;;;5013684;28;20029;-68
2021/11/24 01:13:45;;;;;;;9.93;6.55;;;-1.10;99.90;;;;;;5016114;28;20060;-68
2021/11/24 01:16:11;;;;;;;8.65;6.15;;;-1.10;99.90;;;;;;5023235;28;20079;-68
2021/11/24 01:18:37;;;;;;;11.05;6.28;;;-1.10;99.90;;;;;;5020053;28;20013;-68
2021/11/24 01:21:03;;;;;;;10.40;6.35;;;-1.00;99.90;;;;;;5019299;28;20037;-67
2021/11/24 01:23:29;;;;;;;10.05;6.78;;;-1.00;99.90;;;;;;4994797;28;20145;-68
2021/11/24 01:25:55;;;;;;;15.20;6.03;;;-1.10;99.90;;;;;;5019122;28;20120;-68
2021/11/24 01:28:21;;;;;;;11.48;7.25;;;-1.20;99.90;;;;;;5019452;28;20076;-68
2021/11/24 01:30:47;;;;;;;9.55;6.80;;;-1.20;99.90;;;;;;5016403;28;20034;-67
2021/11/24 01:33:12;;;;;;;11.90;6.43;;;-1.20;99.90;;;;;;5020959;28;20092;-68
2021/11/24 01:35:38;;;;;;;8.30;5.85;;;-1.20;99.90;;;;;;5018419;28;20132;-67
2021/11/24 01:38:04;;;;;;;9.93;7.30;;;-1.20;99.90;;;;;;5017838;28;20018;-67
2021/11/24 01:40:30;;;;;;;11.38;7.00;;;-1.30;99.90;;;;;;5017215;28;20057;-67
2021/11/24 01:42:56;;;;;;;8.23;5.95;;;-1.30;99.90;;;;;;5019102;28;20037;-68
2021/11/24 01:45:22;;;;;;;11.07;6.43;;;-1.40;99.90;;;;;;5017234;28;20045;-68
2021/11/24 01:47:48;;;;;;;9.38;5.85;;;-1.30;99.90;;;;;;5017361;28;20046;-67
2021/11/24 01:50:15;;;;;;;9.25;6.93;;;-1.20;99.90;;;;;;5019700;28;20550;-67
2021/11/24 01:52:41;;;;;;;11.65;6.65;;;-1.20;99.90;;;;;;5014616;28;20053;-67
2021/11/24 01:55:08;;;;;;;7.95;5.68;;;-1.20;99.90;;;;;;5018812;28;20513;-68
2021/11/24 01:57:35;;;;;;;9.60;5.35;;;-1.20;99.90;;;;;;5019058;28;20466;-67
2021/11/24 02:00:06;;;;;;;10.18;7.22;;;-1.20;99.90;;;;;;5014636;28;20025;-68
2021/11/24 02:02:31;;;;;;;11.93;6.93;;;-1.10;99.90;;;;;;5019457;28;20528;-67
2021/11/24 02:04:57;;;;;;;12.73;6.93;;;-1.10;99.90;;;;;;5001078;28;20033;-68
2021/11/24 02:07:23;;;;;;;11.15;7.15;;;-1.10;99.90;;;;;;5015882;28;20033;-67
2021/11/24 02:09:49;;;;;;;14.73;6.85;;;-1.10;99.90;;;;;;5019642;28;20061;-68
2021/11/24 02:12:15;;;;;;;10.07;6.43;;;-1.10;99.90;;;;;;5014534;28;20533;-67
2021/11/24 02:14:43;;;;;;;10.75;6.20;;;-1.10;99.90;;;;;;5022858;28;20494;-68
2021/11/24 02:17:10;;;;;;;7.88;6.00;;;-1.10;99.90;;;;;;5016371;28;20029;-67
2021/11/24 02:19:36;;;;;;;8.82;6.75;;;-1.20;99.90;;;;;;5018264;28;20382;-68
2021/11/24 02:22:03;;;;;;;12.27;5.63;;;-1.20;99.90;;;;;;5016433;28;20038;-68
2021/11/24 02:24:32;;;;;;;10.98;5.57;;;-1.20;99.90;;;;;;5017126;28;20053;-67
2021/11/24 02:26:58;;;;;;;;;;;-1.10;99.90;;;;;;5017466;28;20897;-68
2021/11/24 02:29:24;;;;;;;7.95;5.40;;;-1.20;99.90;;;;;;5018181;28;19917;-68
2021/11/24 02:31:52;;;;;;;6.55;5.72;;;-1.20;99.90;;;;;;5019204;28;20057;-67
2021/11/24 02:34:18;;;;;;;;;;;-1.30;99.90;;;;;;5001380;28;20037;-68
2021/11/24 02:36:44;;;;;;;13.20;5.22;;;-1.30;99.90;;;;;;5019696;28;19917;-68
2021/11/24 02:39:10;;;;;;;8.00;6.00;;;-1.40;99.90;;;;;;5024379;28;20032;-67
2021/11/24 02:41:37;;;;;;;8.00;4.65;;;-1.40;99.90;;;;;;5001660;28;20501;-68
2021/11/24 02:44:34;;;;;;;10.98;4.50;;;-1.30;99.90;;;;;;5023555;28;20072;-67
2021/11/24 02:47:18;;;;;;;8.60;5.40;;;-1.30;99.90;;;;;;5020153;28;20513;-67
2021/11/24 02:49:47;;;;;;;10.18;5.30;;;-1.30;99.90;;;;;;5003152;28;20436;-67
2021/11/24 02:52:14;;;;;;;9.63;6.03;;;-1.30;99.90;;;;;;5018911;28;20532;-68
2021/11/24 02:54:47;;;;;;;8.73;5.90;;;-1.30;99.90;;;;;;5018388;28;20033;-67
2021/11/24 02:57:13;;;;;;;7.53;5.80;;;-1.40;99.90;;;;;;5021532;28;20029;-67
2021/11/24 02:59:39;;;;;;;6.97;4.65;;;-1.50;99.90;;;;;;5020417;28;20033;-68
2021/11/24 03:02:04;;;;;;;15.25;6.28;;;-1.50;99.90;;;;;;5017921;28;20104;-68
2021/11/24 03:04:31;;;;;;;6.40;5.13;;;-1.60;99.90;;;;;;5020919;28;20975;-67
2021/11/24 03:06:58;;;;;;;7.05;5.15;;;-1.60;99.90;;;;;;5019693;28;20057;-67
2021/11/24 03:09:24;;;;;;;9.38;6.07;;;-1.60;99.90;;;;;;5025842;28;20036;-68
2021/11/24 03:11:51;;;;;;;11.13;5.90;;;-1.60;99.90;;;;;;5023571;28;20044;-67
2021/11/24 03:14:17;;;;;;;6.28;4.28;;;-1.60;99.90;;;;;;5023912;28;20021;-68
2021/11/24 03:16:42;;;;;;;6.10;5.10;;;-1.50;99.90;;;;;;5019185;28;20029;-67
2021/11/24 03:19:08;;;;;;;6.95;5.47;;;-1.50;99.90;;;;;;5017256;28;20025;-67
2021/11/24 03:21:34;;;;;;;12.10;6.80;;;-1.50;99.90;;;;;;5021889;28;20506;-67
2021/11/24 03:23:59;;;;;;;8.70;6.45;;;-1.60;99.90;;;;;;5020129;28;20037;-67
2021/11/24 03:26:25;;;;;;;9.88;4.68;;;-1.70;99.90;;;;;;5001441;28;20072;-67
2021/11/24 03:28:51;;;;;;;9.48;5.00;;;-1.80;99.90;;;;;;5019434;28;20498;-67
2021/11/24 03:31:16;;;;;;;9.18;5.40;;;-1.80;99.90;;;;;;5017675;28;20037;-68
2021/11/24 03:33:42;;;;;;;9.75;6.38;;;-1.80;99.90;;;;;;5020477;28;20105;-67
2021/11/24 03:36:08;;;;;;;8.90;5.72;;;-1.80;99.90;;;;;;5020326;28;20434;-67
2021/11/24 03:38:33;;;;;;;5.80;4.65;;;-1.70;99.90;;;;;;5020807;28;20041;-68
2021/11/24 03:40:59;;;;;;;9.27;5.68;;;-1.70;99.90;;;;;;5021720;28;20026;-68
2021/11/24 03:43:25;;;;;;;8.85;5.28;;;-1.60;99.90;;;;;;5003375;28;20036;-67
2021/11/24 03:45:50;;;;;;;6.75;5.13;;;-1.70;99.90;;;;;;5026419;28;20039;-67
2021/11/24 03:48:16;;;;;;;8.32;6.00;;;-1.80;99.90;;;;;;5019420;28;20029;-67
2021/11/24 03:50:42;;;;;;;9.27;6.10;;;-1.80;99.90;;;;;;5017255;28;20608;-68
2021/11/24 03:53:08;;;;;;;5.85;5.05;;;-1.80;99.90;;;;;;5020286;28;20529;-67
2021/11/24 03:55:34;;;;;;;8.02;5.72;;;-1.90;99.90;;;;;;5020404;28;20030;-67
2021/11/24 03:58:02;;;;;;;5.53;4.68;;;-1.90;99.90;;;;;;5018932;28;20053;-67
2021/11/24 04:00:28;;;;;;;9.85;5.63;;;-1.90;99.90;;;;;;5018858;28;20018;-67
2021/11/24 04:02:54;;;;;;;6.35;4.53;;;-1.80;99.90;;;;;;5022569;28;20037;-68
2021/11/24 04:05:20;;;;;;;8.63;5.22;;;-1.90;99.90;;;;;;5018010;28;20033;-67
2021/11/24 04:07:46;;;;;;;8.20;5.50;;;-1.90;99.90;;;;;;5018000;28;20549;-67
2021/11/24 04:10:13;;;;;;;6.93;4.75;;;-2.00;99.90;;;;;;5018002;28;20030;-67
2021/11/24 04:12:42;;;;;;;6.03;5.43;;;-2.10;99.90;;;;;;5023022;28;20104;-68
2021/11/24 04:15:10;;;;;;;7.43;5.15;;;-2.00;99.90;;;;;;5020651;28;20980;-67
2021/11/24 04:17:35;;;;;;;8.95;5.90;;;-1.90;99.90;;;;;;5022133;28;20029;-68
2021/11/24 04:20:01;;;;;;;8.82;5.30;;;-2.00;99.90;;;;;;5019963;28;20056;-67
2021/11/24 04:22:27;;;;;;;5.18;4.53;;;-2.00;99.90;;;;;;5005831;28;20044;-68
2021/11/24 04:24:53;;;;;;;8.55;5.78;;;-2.00;99.90;;;;;;5020293;28;20029;-68
2021/11/24 04:27:19;;;;;;;9.88;6.00;;;-2.00;99.90;;;;;;5018692;28;20029;-68
2021/11/24 04:29:45;;;;;;;5.35;4.03;;;-2.00;99.90;;;;;;5001994;28;20111;-68
2021/11/24 04:32:10;;;;;;;7.53;5.53;;;-2.00;99.90;;;;;;5019127;28;20091;-68
2021/11/24 04:34:36;;;;;;;9.93;5.07;;;-2.00;99.90;;;;;;5019657;28;20018;-68
2021/11/24 04:37:02;;;;;;;8.63;5.00;;;-2.00;99.90;;;;;;5021670;28;20041;-68
2021/11/24 04:39:28;;;;;;;12.40;6.20;;;-2.00;99.90;;;;;;5002017;28;20030;-68
2021/11/24 04:41:54;;;;;;;9.45;6.53;;;-2.00;99.90;;;;;;5019123;28;20049;-68
2021/11/24 04:44:19;;;;;;;8.20;4.68;;;-2.00;99.90;;;;;;5019205;28;20032;-67
2021/11/24 04:46:45;;;;;;;4.65;4.25;;;-2.10;99.90;;;;;;5018573;28;20037;-67
2021/11/24 04:49:11;;;;;;;7.95;5.78;;;-2.00;99.90;;;;;;5015825;28;20044;-67
2021/11/24 04:51:37;;;;;;;5.28;4.43;;;-2.00;99.90;;;;;;5020189;28;20062;-68
2021/11/24 04:54:02;;;;;;;5.72;4.38;;;-1.90;99.90;;;;;;5016498;28;20037;-68
2021/11/24 04:56:28;;;;;;;4.43;4.03;;;-1.90;99.90;;;;;;5019646;28;20025;-67
2021/11/24 04:58:57;;;;;;;6.55;4.13;;;-1.90;99.90;;;;;;4999185;28;20028;-68
2021/11/24 05:01:22;;;;;;;7.00;5.47;;;-1.90;99.90;;;;;;5017960;28;20056;-67
2021/11/24 05:03:49;;;;;;;6.95;5.28;;;-1.80;99.90;;;;;;5019190;28;20041;-68
2021/11/24 05:06:16;;;;;;;8.32;5.03;;;-1.80;99.90;;;;;;5018543;28;20477;-67
2021/11/24 05:08:42;;;;;;;8.70;5.30;;;-1.80;99.90;;;;;;5012558;28;20422;-68
2021/11/24 05:11:09;;;;;;;6.10;4.68;;;-1.80;99.90;;;;;;5021014;28;20039;-68
2021/11/24 05:13:35;;;;;;;7.75;5.53;;;-1.80;99.90;;;;;;5015635;28;20105;-68
2021/11/24 05:16:04;;;;;;;8.77;5.60;;;-1.80;99.90;;;;;;5016244;28;20069;-68
2021/11/24 05:18:39;;;;;;;8.35;6.05;;;-1.70;99.90;;;;;;5015155;28;20022;-69
2021/11/24 05:21:14;;;;;;;6.20;4.68;;;-1.70;99.90;;;;;;5018516;28;20116;-68
2021/11/24 05:23:42;;;;;;;8.15;5.32;;;-1.60;99.90;;;;;;5015219;28;20041;-67
2021/11/24 05:26:08;;;;;;;5.43;4.65;;;-1.60;99.90;;;;;;5019752;28;20026;-68
2021/11/24 05:28:34;;;;;;;6.40;5.25;;;-1.60;99.90;;;;;;5016634;28;20033;-67
2021/11/24 05:31:01;;;;;;;5.35;4.43;;;-1.60;99.90;;;;;;5016774;28;20038;-68
2021/11/24 05:33:27;;;;;;;7.72;5.38;;;-1.60;99.90;;;;;;5004683;28;20094;-67
2021/11/24 05:35:53;;;;;;;9.00;5.30;;;-1.60;99.90;;;;;;5017999;28;20056;-68
2021/11/24 05:38:18;;;;;;;9.27;5.72;;;-1.70;99.90;;;;;;5018366;28;20120;-68
2021/11/24 05:40:44;;;;;;;6.10;5.50;;;-1.80;99.90;;;;;;5017567;28;20056;-68
2021/11/24 05:43:10;;;;;;;6.90;4.93;;;-1.80;99.90;;;;;;5017380;28;20458;-68
2021/11/24 05:46:09;;;;;;;6.28;5.10;;;-1.80;99.90;;;;;;5021501;28;20105;-68
2021/11/24 05:48:30;;;;;;;6.80;4.43;;;-1.80;99.90;;;;;;5021013;28;20037;-67
2021/11/24 05:50:56;;;;;;;4.80;4.03;;;-1.70;99.90;;;;;;5020695;28;20029;-67
2021/11/24 05:53:22;;;;;;;5.43;4.43;;;-1.70;99.90;;;;;;5000242;28;20049;-67
2021/11/24 05:55:48;;;;;;;6.32;5.30;;;-1.70;99.90;;;;;;5018786;28;20024;-67
2021/11/24 05:58:18;;;;;;;10.05;5.03;;;-1.70;99.90;;;;;;5016655;28;20032;-68
2021/11/24 06:00:44;;;;;;;8.38;5.18;;;-1.70;99.90;;;;;;5020893;28;20049;-68
2021/11/24 06:03:09;;;;;;;7.68;5.60;;;-1.70;99.90;;;;;;5003389;28;20030;-67
2021/11/24 06:05:35;;;;;;;7.68;5.97;;;-1.70;99.90;;;;;;5014565;28;20406;-68
2021/11/24 06:08:02;;;;;;;11.48;5.15;;;-1.70;99.90;;;;;;5014765;28;20087;-68
2021/11/24 06:10:27;;;;;;;10.05;5.85;;;-1.80;99.90;;;;;;5006197;28;20026;-68
2021/11/24 06:12:53;;;;;;;6.05;5.07;;;-1.80;99.90;;;;;;5020445;28;20048;-67
2021/11/24 06:15:19;;;;;;;10.32;5.82;;;-1.80;99.90;;;;;;5019836;28;20025;-67
2021/11/24 06:17:46;;;;;;;7.43;5.65;;;-1.80;99.90;;;;;;5025688;28;20041;-68
2021/11/24 06:20:12;;;;;;;7.53;4.97;;;-1.70;99.90;;;;;;5005938;28;20034;-69
2021/11/24 06:22:39;;;;;;;8.77;6.30;;;-1.80;99.90;;;;;;5024624;28;20038;-67
2021/11/24 06:25:06;;;;;;;10.23;6.15;;;-1.90;99.90;;;;;;5019310;28;20111;-69
2021/11/24 06:27:32;;;;;;;6.68;5.30;;;-1.90;99.90;;;;;;5019946;28;20029;-68
2021/11/24 06:29:57;;;;;;;8.95;6.20;;;-1.90;99.90;;;;;;5002679;28;20745;-68
2021/11/24 06:32:23;;;;;;;11.23;6.53;;;-2.00;99.90;;;;;;5023490;28;20044;-68
2021/11/24 06:34:48;;;;;;;9.88;6.70;;;-2.00;99.90;;;;;;5022654;28;20878;-68
2021/11/24 06:37:14;;;;;;;9.80;6.28;;;-2.00;99.90;;;;;;5005975;28;20482;-68
2021/11/24 06:39:40;;;;;;;8.02;5.60;;;-2.00;99.90;;;;;;5021862;28;20036;-68
2021/11/24 06:42:05;;;;;;;12.30;7.32;;;-2.00;99.90;;;;;;5024292;28;20083;-68
2021/11/24 06:44:31;;;;;;;10.07;6.70;;;-2.00;99.90;;;;;;5003264;28;20792;-68
2021/11/24 06:46:57;;;;;;;8.35;6.53;;;-2.00;99.90;;;;;;5022115;28;20060;-68
2021/11/24 06:49:22;;;;;;;9.70;5.78;;;-2.00;99.90;;;;;;5023335;28;20044;-68
2021/11/24 06:51:48;;;;;;;10.95;7.28;;;-2.00;99.90;;;;;;5019978;28;20038;-68
2021/11/24 06:54:16;;;;;;;8.75;6.30;;;-2.00;99.90;;;;;;5021943;28;20040;-68
2021/11/24 06:56:46;;;;;;;12.02;7.38;;;-2.00;99.90;;;;;;5021039;28;20022;-67
2021/11/24 06:59:12;;;;;;;10.57;7.40;;;-2.00;99.90;;;;;;5020325;28;20033;-68
2021/11/24 07:01:38;;;;;;;12.55;7.20;;;-2.10;99.90;;;;;;5006227;28;20042;-68
2021/11/24 07:04:04;;;;;;;8.57;6.15;;;-2.10;99.90;;;;;;5024433;28;20064;-68
2021/11/24 07:06:30;;;;;;;9.20;6.47;;;-2.00;99.90;;;;;;5020925;28;20052;-68
2021/11/24 07:08:56;;;;;;;9.88;6.85;;;-2.00;99.90;;;;;;5022438;28;20773;-68
2021/11/24 07:11:23;;;;;;;12.27;7.28;;;-2.00;99.90;;;;;;5023651;28;20034;-68
2021/11/24 07:13:49;;;;;;;7.22;5.75;;;-1.90;99.90;;;;;;5006456;28;20029;-68
2021/11/24 07:16:15;;;;;;;14.25;6.18;;;-1.90;99.90;;;;;;5026288;28;20116;-68
2021/11/24 07:18:41;;;;;;;9.15;6.72;;;-1.90;99.90;;;;;;5023315;28;20017;-68
2021/11/24 07:21:06;;;;;;;11.68;6.50;;;-1.90;99.90;;;;;;5022381;28;20386;-68
2021/11/24 07:23:32;;;;;;;10.02;7.22;;;-1.80;99.90;;;;;;5005022;28;20029;-68
2021/11/24 07:25:58;;;;;;;12.15;6.68;;;-1.80;99.90;;;;;;5023618;28;20021;-68
2021/11/24 07:28:23;;;;;;;12.68;8.48;;;-1.80;99.90;;;;;;5022741;28;20021;-68
2021/11/24 07:30:49;;;;;;;10.00;6.88;;;-1.70;99.90;;;;;;5021168;28;20044;-68
2021/11/24 07:33:14;;;;;;;12.82;7.20;;;-1.70;99.90;;;;;;5004441;28;20029;-68
2021/11/24 07:35:40;;;;;;;8.95;5.85;;;-1.70;99.90;;;;;;5021491;28;20048;-68
2021/11/24 07:38:06;;;;;;;12.88;8.63;;;-1.70;99.90;;;;;;5004765;28;20530;-68
2021/11/24 07:40:32;;;;;;;10.63;6.72;;;-1.60;99.90;;;;;;5007390;28;20367;-68
2021/11/24 07:42:57;;;;;;;10.85;6.07;;;-1.60;99.90;;;;;;5016731;28;20377;-68
2021/11/24 07:45:23;;;;;;;13.80;7.40;;;-1.60;99.90;;;;;;5016068;28;20049;-68
2021/11/24 07:47:49;;;;;;;15.55;8.48;;;-1.60;99.90;;;;;;5016835;28;20422;-69
2021/11/24 07:50:14;;;;;;;13.77;8.07;;;-1.60;99.90;;;;;;5000017;28;20500;-68
2021/11/24 07:52:40;;;;;;;13.25;8.68;;;-1.50;99.90;;;;;;5001228;28;20092;-68
2021/11/24 07:55:06;;;;;;;17.60;9.35;;;-1.50;99.90;;;;;;5021657;28;20494;-68
2021/11/24 07:57:32;;;;;;;14.38;7.70;;;-1.50;99.90;;;;;;5014645;28;20021;-69
2021/11/24 07:59:57;;;;;;;16.88;8.55;;;-1.50;99.90;;;;;;5014849;28;20026;-68
2021/11/24 08:02:23;;;;;;;13.07;7.57;;;-1.50;99.90;;;;;;5020596;28;20038;-69
2021/11/24 08:04:50;;;;;;;20.80;10.25;;;-1.40;99.90;;;;;;5020646;28;20033;-68
2021/11/24 08:07:16;;;;;;;22.45;8.68;;;-1.40;99.90;;;;;;5004220;28;20033;-68
2021/11/24 08:09:41;;;;;;;21.48;9.43;;;-1.40;99.90;;;;;;5002283;28;20394;-68
2021/11/24 08:12:08;;;;;;;20.15;9.10;;;-1.30;99.90;;;;;;5020323;28;20044;-68
2021/11/24 08:14:33;;;;;;;22.80;10.65;;;-1.30;99.90;;;;;;5023361;28;20029;-68
2021/11/24 08:16:59;;;;;;;17.88;9.57;;;-1.30;99.90;;;;;;5024700;28;20475;-68
2021/11/24 08:19:25;;;;;;;15.00;9.32;;;-1.20;99.90;;;;;;5019987;28;20032;-68
2021/11/24 08:21:50;;;;;;;26.70;9.02;;;-1.30;99.90;;;;;;5020473;28;20033;-68
2021/11/24 08:24:16;;;;;;;12.50;7.30;;;-1.20;99.90;;;;;;5019652;28;20040;-68
2021/11/24 08:26:42;;;;;;;21.88;9.30;;;-1.10;99.90;;;;;;5018782;28;20034;-68
2021/11/24 08:29:09;;;;;;;16.13;8.20;;;-1.10;99.90;;;;;;5019738;28;20025;-68
2021/11/24 08:31:37;;;;;;;19.25;8.95;;;-1.00;99.90;;;;;;5022447;28;20037;-68
2021/11/24 08:34:03;;;;;;;21.40;10.90;;;-1.00;99.90;;;;;;5017842;28;20470;-68
2021/11/24 08:36:30;;;;;;;14.20;8.90;;;-0.90;99.90;;;;;;5020281;28;20021;-68
2021/11/24 08:38:56;;;;;;;21.35;10.23;;;-0.90;99.90;;;;;;5016927;28;20079;-68
2021/11/24 08:41:22;;;;;;;23.65;9.95;;;-0.90;99.90;;;;;;5001368;28;20494;-68
2021/11/24 08:43:47;;;;;;;26.02;10.20;;;-0.90;99.90;;;;;;5004611;28;20037;-68
2021/11/24 08:46:13;;;;;;;24.35;10.75;;;-0.80;99.90;;;;;;5019135;28;20033;-68
2021/11/24 08:48:38;;;;;;;30.63;12.00;;;-0.70;99.90;;;;;;5018549;28;20075;-68
2021/11/24 08:51:05;;;;;;;35.05;12.82;;;-0.70;99.90;;;;;;5017915;28;20044;-68
2021/11/24 08:53:31;;;;;;;26.98;12.98;;;-0.70;99.90;;;;;;5019099;28;20046;-68
2021/11/24 08:55:56;;;;;;;28.60;10.60;;;-0.60;99.90;;;;;;5000231;28;20025;-68
2021/11/24 08:58:23;;;;;;;27.17;12.73;;;-0.60;99.90;;;;;;5016823;28;20026;-68
2021/11/24 09:00:48;;;;;;;31.52;12.85;;;-0.60;99.90;;;;;;5018205;28;20109;-68
2021/11/24 09:03:14;;;;;;;28.52;12.02;;;-0.60;99.90;;;;;;5015615;28;20034;-68
2021/11/24 09:05:40;;;;;;;34.30;14.18;;;-0.50;99.90;;;;;;5019944;28;20092;-68
2021/11/24 09:08:06;;;;;;;25.73;11.20;;;-0.50;99.90;;;;;;5019893;28;20029;-68
2021/11/24 09:10:32;;;;;;;18.20;9.20;;;-0.50;99.90;;;;;;5014836;28;20168;-67
2021/11/24 09:12:59;;;;;;;23.40;9.90;;;-0.50;99.90;;;;;;5017782;28;20029;-68
2021/11/24 09:15:25;;;;;;;32.17;11.13;;;-0.50;99.90;;;;;;5016329;28;20076;-68
2021/11/24 09:17:51;;;;;;;37.40;13.40;;;-0.40;99.90;;;;;;5017317;28;20033;-68
2021/11/24 09:20:17;;;;;;;38.05;13.35;;;-0.40;99.90;;;;;;5019740;28;20029;-68
2021/11/24 09:22:45;;;;;;;28.00;10.65;;;-0.40;99.90;;;;;;5018897;28;20056;-68
2021/11/24 09:25:15;;;;;;;28.90;11.90;;;-0.40;99.90;;;;;;5020173;28;20032;-68
2021/11/24 09:30:17;;;;;;;28.48;13.15;;;-0.40;99.90;;;;;;5018529;28;20411;-68
2021/11/24 09:32:43;;;;;;;27.08;11.90;;;-0.40;99.90;;;;;;5002111;28;20031;-68
2021/11/24 09:35:10;;;;;;;21.23;10.35;;;-0.30;99.90;;;;;;5017431;28;20030;-68
2021/11/24 09:37:36;;;;;;;27.33;11.00;;;-0.30;99.90;;;;;;5020042;28;20054;-68
2021/11/24 09:40:05;;;;;;;21.63;8.98;;;-0.30;99.90;;;;;;5017926;28;20024;-68
2021/11/24 09:42:33;;;;;;;25.25;10.07;;;-0.30;99.90;;;;;;5017187;28;20053;-69
2021/11/24 09:45:00;;;;;;;23.55;8.88;;;-0.30;99.90;;;;;;5015969;28;20464;-68
2021/11/24 09:47:26;;;;;;;25.02;9.88;;;-0.30;99.90;;;;;;5015567;28;20048;-68
2021/11/24 09:49:59;;;;;;;29.13;11.70;;;-0.30;99.90;;;;;;5017374;28;20029;-68
2021/11/24 09:52:25;;;;;;;22.88;9.85;;;-0.30;99.90;;;;;;5020174;28;20167;-68
2021/11/24 09:54:51;;;;;;;18.38;9.38;;;-0.30;99.90;;;;;;5018938;28;20048;-69
2021/11/24 09:57:18;;;;;;;21.60;9.18;;;-0.30;99.90;;;;;;5016199;28;20486;-68
2021/11/24 09:59:44;;;;;;;17.65;8.88;;;-0.30;99.90;;;;;;5017863;28;20061;-68
2021/11/24 10:02:12;;;;;;;18.00;8.48;;;-0.30;99.90;;;;;;5001321;28;20107;-68
2021/11/24 10:04:41;;;;;;;18.38;9.50;;;-0.30;99.90;;;;;;4999235;28;20025;-69
2021/11/24 10:07:09;;;;;;;31.63;12.27;;;-0.30;99.90;;;;;;5012310;28;20045;-69
2021/11/24 10:09:35;;;;;;;20.10;8.40;;;-0.30;99.90;;;;;;4999365;28;20033;-68
2021/11/24 10:12:01;;;;;;;16.92;8.23;;;-0.30;99.90;;;;;;5014982;28;20045;-68
2021/11/24 10:14:27;;;;;;;18.48;8.57;;;-0.30;99.90;;;;;;5017645;28;20111;-68
2021/11/24 10:17:10;;;;;;;19.27;8.52;;;-0.30;99.90;;;;;;5019005;28;21665;-68
2021/11/24 10:19:37;;;;;;;23.48;9.65;;;-0.30;99.90;;;;;;5021160;28;20025;-68
2021/11/24 10:22:06;;;;;;;17.48;7.80;;;-0.30;99.90;;;;;;5017200;28;20061;-68
2021/11/24 10:24:36;;;;;;;17.40;8.20;;;-0.30;99.90;;;;;;5017311;28;20489;-69
2021/11/24 10:27:04;;;;;;;22.23;9.48;;;-0.30;99.90;;;;;;5017079;28;20037;-68
2021/11/24 10:29:31;;;;;;;21.63;8.68;;;-0.30;99.90;;;;;;5019011;28;20041;-68
2021/11/24 10:31:58;;;;;;;20.67;8.35;;;-0.30;99.90;;;;;;5018596;28;20544;-68
2021/11/24 10:34:33;;;;;;;18.98;7.72;;;-0.30;99.90;;;;;;5000118;28;20040;-68
2021/11/24 10:37:06;;;;;;;17.48;8.60;;;-0.30;99.90;;;;;;5018729;28;20460;-68
2021/11/24 10:39:35;;;;;;;17.15;8.32;;;-0.40;99.90;;;;;;5017091;28;20045;-68
2021/11/24 10:42:26;;;;;;;13.98;7.07;;;-0.40;99.90;;;;;;5012937;28;20123;-68
2021/11/24 10:45:09;;;;;;;14.95;5.78;;;-0.30;99.90;;;;;;5006768;28;20091;-68
2021/11/24 10:47:49;;;;;;;13.70;7.55;;;-0.30;99.90;;;;;;5017070;28;20053;-68
2021/11/24 10:50:21;;;;;;;15.77;6.70;;;-0.30;99.90;;;;;;5001626;28;20294;-68
2021/11/24 10:52:47;;;;;;;19.33;9.13;;;-0.30;99.90;;;;;;5014304;28;20041;-68
2021/11/24 10:55:17;;;;;;;18.27;8.93;;;-0.30;99.90;;;;;;5016656;28;20100;-68
2021/11/24 10:58:05;;;;;;;18.80;8.25;;;-0.30;99.90;;;;;;5016422;28;20486;-68
2021/11/24 11:00:38;;;;;;;18.53;7.90;;;-0.40;99.90;;;;;;5014877;28;20036;-69
2021/11/24 11:03:05;;;;;;;15.68;7.57;;;-0.40;99.90;;;;;;5021175;28;20113;-68
2021/11/24 11:05:32;;;;;;;20.83;9.13;;;-0.30;99.90;;;;;;5006386;28;20075;-69
2021/11/24 11:08:05;;;;;;;15.38;7.75;;;-0.30;99.90;;;;;;5020563;28;20033;-68
2021/11/24 11:10:36;;;;;;;17.00;8.77;;;-0.30;99.90;;;;;;4999194;28;20041;-68
2021/11/24 11:13:16;;;;;;;21.40;10.05;;;-0.40;99.90;;;;;;5021065;28;20069;-68
2021/11/24 11:15:44;;;;;;;21.42;8.88;;;-0.40;99.90;;;;;;5014943;28;20026;-68
2021/11/24 11:18:10;;;;;;;16.60;8.35;;;-0.40;99.90;;;;;;5020703;28;20071;-68
2021/11/24 11:20:49;;;;;;;19.83;9.68;;;-0.30;99.90;;;;;;5022643;28;20026;-68
2021/11/24 11:23:36;;;;;;;15.50;8.00;;;-0.40;99.90;;;;;;5002996;28;20036;-68
2021/11/24 11:26:11;;;;;;;21.15;9.00;;;-0.40;99.90;;;;;;5018876;28;20499;-69
2021/11/24 11:28:42;;;;;;;11.82;6.93;;;-0.40;99.90;;;;;;5019960;28;20121;-68
2021/11/24 11:31:10;;;;;;;13.90;6.68;;;-0.40;99.90;;;;;;5002461;28;20167;-67
2021/11/24 11:33:45;;;;;;;17.30;8.48;;;-0.30;99.90;;;;;;5020576;28;20009;-66
2021/11/24 11:36:11;;;;;;;15.15;7.20;;;-0.30;99.90;;;;;;5019504;28;20025;-67
2021/11/24 11:38:41;;;;;;;18.15;8.43;;;-0.30;99.90;;;;;;5022496;28;20037;-67
2021/11/24 11:41:07;;;;;;;15.73;7.32;;;-0.30;99.90;;;;;;5023996;28;20486;-67
2021/11/24 11:43:34;;;;;;;15.70;8.48;;;-0.30;99.90;;;;;;5019634;28;20053;-66
2021/11/24 11:46:20;;;;;;;16.67;7.63;;;-0.30;99.90;;;;;;5019826;28;20390;-67
2021/11/24 11:48:46;;;;;;;13.77;7.22;;;-0.30;99.90;;;;;;5017820;28;20030;-67
2021/11/24 11:51:14;;;;;;;17.70;8.68;;;-0.30;99.90;;;;;;5004017;28;21226;-67
2021/11/24 11:53:52;;;;;;;15.88;7.68;;;-0.30;99.90;;;;;;5018340;28;20425;-67
2021/11/24 11:56:22;;;;;;;16.88;8.25;;;-0.30;99.90;;;;;;5021981;28;20026;-67
2021/11/24 11:58:56;;;;;;;15.93;7.60;;;-0.30;99.90;;;;;;5016923;28;20025;-67
2021/11/24 12:01:23;;;;;;;17.40;8.65;;;-0.30;99.90;;;;;;5019415;28;20029;-67
2021/11/24 12:04:00;;;;;;;14.27;7.47;;;-0.30;99.90;;;;;;5019918;28;20025;-67
2021/11/24 12:06:47;;;;;;;14.70;7.93;;;-0.30;99.90;;;;;;5018509;28;20022;-67
2021/11/24 12:09:20;;;;;;;11.23;5.77;;;-0.30;99.90;;;;;;5018041;28;21555;-67
2021/11/24 12:12:01;;;;;;;17.33;8.68;;;-0.30;99.90;;;;;;5021860;28;20702;-67
2021/11/24 12:14:45;;;;;;;16.98;7.38;;;-0.30;99.90;;;;;;5020001;28;20033;-67
2021/11/24 12:17:32;;;;;;;12.80;6.50;;;-0.30;99.90;;;;;;5019412;28;20029;-68
2021/11/24 12:20:17;;;;;;;19.42;8.57;;;-0.30;99.90;;;;;;5021192;28;20056;-67
2021/11/24 12:22:49;;;;;;;19.52;7.70;;;-0.30;99.90;;;;;;5019835;28;20125;-67
2021/11/24 12:25:17;;;;;;;14.00;7.88;;;-0.30;99.90;;;;;;5021085;28;20026;-67
2021/11/24 12:27:57;;;;;;;15.95;7.85;;;-0.30;99.90;;;;;;5020538;28;20037;-67
2021/11/24 12:30:42;;;;;;;18.67;8.68;;;-0.20;99.90;;;;;;5004661;28;20095;-67
2021/11/24 12:33:17;;;;;;;17.40;7.05;;;-0.20;99.90;;;;;;5020325;28;20075;-67
2021/11/24 12:35:52;;;;;;;15.70;8.07;;;-0.20;99.90;;;;;;5018183;28;20017;-67
2021/11/24 12:38:19;;;;;;;20.73;8.65;;;-0.10;99.90;;;;;;5020702;28;20036;-67
2021/11/24 12:40:48;;;;;;;20.67;9.13;;;-0.10;99.90;;;;;;5002926;28;20060;-67
2021/11/24 12:43:18;;;;;;;;;;;-0.10;99.90;;;;;;5020548;28;20037;-67
2021/11/24 12:46:02;;;;;;;20.67;8.73;;;-0.10;99.90;;;;;;5018775;28;19913;-67